createdAt,value
2022-10-17T00:01:09.076Z,78.70
2022-10-17T00:03:38.592Z,80.20
2022-10-17T00:06:08.276Z,80.70
2022-10-17T00:08:36.931Z,81.60
2022-10-17T00:11:07.707Z,80.70
2022-10-17T00:13:36.538Z,83.50
2022-10-17T00:16:04.778Z,83.20
2022-10-17T00:18:34.801Z,86.00
2022-10-17T00:21:02.959Z,83.30
2022-10-17T00:23:31.399Z,85.30
2022-10-17T00:26:00.516Z,82.70
2022-10-17T00:28:28.799Z,82.30
2022-10-17T00:30:58.673Z,81.30
2022-10-17T00:33:27.012Z,80.70
2022-10-17T00:36:06.347Z,79.60
2022-10-17T00:38:37.132Z,78.90
2022-10-17T00:41:05.868Z,78.30
2022-10-17T00:43:53.031Z,78.10
2022-10-17T00:46:22.248Z,77.90
2022-10-17T00:48:52.203Z,77.80
2022-10-17T00:51:26.685Z,78.50
2022-10-17T00:53:54.994Z,78.10
2022-10-17T00:56:24.719Z,77.40
2022-10-17T00:58:53.142Z,77.10
2022-10-17T01:01:21.463Z,76.90
2022-10-17T01:03:49.869Z,77.00
2022-10-17T01:06:21.092Z,77.30
2022-10-17T01:08:49.743Z,77.70
2022-10-17T01:11:30.198Z,77.90
2022-10-17T01:14:05.472Z,78.30
2022-10-17T01:16:43.824Z,78.00
2022-10-17T01:19:36.882Z,78.40
2022-10-17T01:22:10.816Z,78.00
2022-10-17T01:25:20.218Z,78.30
2022-10-17T01:27:58.880Z,78.30
2022-10-17T01:30:58.639Z,78.50
2022-10-17T01:33:36.384Z,78.60
2022-10-17T01:36:11.889Z,79.60
2022-10-17T01:38:48.572Z,80.00
2022-10-17T01:41:23.515Z,80.20
2022-10-17T01:43:56.851Z,80.10
2022-10-17T01:46:29.583Z,80.00
2022-10-17T01:49:01.354Z,80.10
2022-10-17T01:51:34.554Z,78.90
2022-10-17T01:54:08.004Z,79.30
2022-10-17T01:56:37.757Z,79.30
2022-10-17T01:59:12.664Z,80.30
2022-10-17T02:01:43.620Z,82.70
2022-10-17T02:04:18.427Z,81.40
2022-10-17T02:06:47.404Z,80.10
2022-10-17T02:09:20.989Z,79.90
2022-10-17T02:11:59.687Z,79.60
2022-10-17T02:14:39.149Z,78.80
2022-10-17T02:17:18.046Z,78.50
2022-10-17T02:19:59.857Z,78.20
2022-10-17T02:22:37.569Z,78.00
2022-10-17T02:25:15.643Z,78.50
2022-10-17T02:27:52.183Z,77.90
2022-10-17T02:30:30.895Z,78.60
2022-10-17T02:33:06.737Z,78.20
2022-10-17T02:35:39.552Z,77.90
2022-10-17T02:38:10.882Z,77.70
2022-10-17T02:40:41.231Z,77.50
2022-10-17T02:43:09.609Z,77.50
2022-10-17T02:45:38.932Z,77.80
2022-10-17T02:48:13.339Z,78.10
2022-10-17T02:50:50.120Z,77.60
2022-10-17T02:53:25.982Z,77.50
2022-10-17T02:55:59.043Z,77.80
2022-10-17T02:58:33.522Z,78.50
2022-10-17T03:01:02.971Z,78.20
2022-10-17T03:03:34.386Z,78.20
2022-10-17T03:06:03.652Z,79.00
2022-10-17T03:08:31.931Z,79.00
2022-10-17T03:11:01.661Z,79.60
2022-10-17T03:13:33.030Z,79.20
2022-10-17T03:16:03.393Z,79.10
2022-10-17T03:18:32.995Z,80.10
2022-10-17T03:21:02.751Z,80.50
2022-10-17T03:23:31.467Z,80.60
2022-10-17T03:26:05.288Z,80.90
2022-10-17T03:28:35.520Z,80.30
2022-10-17T03:31:08.855Z,79.90
2022-10-17T03:33:39.511Z,79.30
2022-10-17T03:36:08.887Z,79.50
2022-10-17T03:38:37.568Z,79.40
2022-10-17T03:41:07.530Z,79.70
2022-10-17T03:43:37.188Z,79.50
2022-10-17T03:46:05.687Z,79.00
2022-10-17T03:48:35.049Z,79.50
2022-10-17T03:51:06.563Z,80.10
2022-10-17T03:53:39.003Z,80.10
2022-10-17T03:56:12.166Z,80.60
2022-10-17T03:58:41.298Z,80.80
2022-10-17T04:01:11.177Z,81.30
2022-10-17T04:03:39.514Z,80.80
2022-10-17T04:06:11.863Z,80.70
2022-10-17T04:08:42.712Z,82.20
2022-10-17T04:11:17.271Z,81.70
2022-10-17T04:13:46.184Z,82.00
2022-10-17T04:16:16.560Z,82.40
2022-10-17T04:19:00.155Z,82.50
2022-10-17T04:21:33.944Z,82.80
2022-10-17T04:24:07.345Z,83.00
2022-10-17T04:27:04.727Z,86.50
2022-10-17T04:29:35.428Z,88.70
2022-10-17T04:32:12.799Z,90.00
2022-10-17T04:34:45.207Z,89.90
2022-10-17T04:37:15.824Z,89.20
2022-10-17T04:39:46.344Z,88.70
2022-10-17T04:42:14.448Z,89.80
2022-10-17T04:44:43.622Z,88.00
2022-10-17T04:47:12.097Z,86.40
2022-10-17T04:52:12.172Z,84.00
2022-10-17T04:54:51.680Z,83.30
2022-10-17T04:57:21.052Z,83.10
2022-10-17T04:59:57.306Z,82.70
2022-10-17T05:02:48.478Z,82.80
2022-10-17T05:05:17.262Z,82.40
2022-10-17T05:07:48.017Z,82.00
2022-10-17T05:10:21.691Z,82.30
2022-10-17T05:12:53.153Z,81.80
2022-10-17T05:15:24.676Z,81.80
2022-10-17T05:17:56.383Z,81.70
2022-10-17T05:20:27.685Z,81.50
2022-10-17T05:22:56.079Z,81.60
2022-10-17T05:25:25.681Z,82.70
2022-10-17T05:27:54.337Z,82.50
2022-10-17T05:30:22.861Z,84.70
2022-10-17T05:32:55.991Z,84.10
2022-10-17T05:35:24.272Z,84.10
2022-10-17T05:37:53.311Z,85.80
2022-10-17T05:40:23.040Z,85.20
2022-10-17T05:42:55.103Z,83.90
2022-10-17T05:45:24.550Z,83.00
2022-10-17T05:47:53.009Z,82.30
2022-10-17T05:50:24.080Z,82.10
2022-10-17T05:53:10.268Z,82.50
2022-10-17T05:55:44.725Z,82.70
2022-10-17T05:58:21.955Z,82.50
2022-10-17T06:00:59.815Z,83.10
2022-10-17T06:03:29.060Z,84.50
2022-10-17T06:05:58.431Z,86.70
2022-10-17T06:08:26.708Z,86.20
2022-10-17T06:10:54.980Z,85.50
2022-10-17T06:13:24.628Z,86.00
2022-10-17T06:15:54.520Z,85.10
2022-10-17T06:18:22.850Z,84.70
2022-10-17T06:20:51.475Z,85.70
2022-10-17T06:23:21.076Z,86.00
2022-10-17T06:25:59.929Z,85.30
2022-10-17T06:28:30.048Z,85.40
2022-10-17T06:30:59.162Z,85.70
2022-10-17T06:33:28.187Z,85.50
2022-10-17T06:35:57.955Z,86.20
2022-10-17T06:38:27.709Z,85.80
2022-10-17T06:41:04.996Z,85.60
2022-10-17T06:43:35.276Z,86.00
2022-10-17T06:46:42.200Z,85.70
2022-10-17T06:49:11.953Z,85.70
2022-10-17T06:52:00.520Z,86.20
2022-10-17T06:54:41.686Z,86.70
2022-10-17T06:57:29.344Z,88.30
2022-10-17T07:00:23.768Z,91.00
2022-10-17T07:02:55.448Z,89.20
2022-10-17T07:05:24.687Z,91.20
2022-10-17T07:07:53.344Z,90.70
2022-10-17T07:10:21.680Z,89.50
2022-10-17T07:12:49.874Z,89.00
2022-10-17T07:15:18.351Z,90.20
2022-10-17T07:17:51.582Z,91.10
2022-10-17T07:20:20.665Z,90.70
2022-10-17T07:22:48.900Z,90.30
2022-10-17T07:25:17.257Z,90.30
2022-10-17T07:27:51.408Z,90.50
2022-10-17T07:30:20.488Z,90.30
2022-10-17T07:33:02.620Z,89.90
2022-10-17T07:35:32.664Z,89.00
2022-10-17T07:38:00.935Z,89.00
2022-10-17T07:40:29.232Z,89.20
2022-10-17T07:42:58.353Z,87.90
2022-10-17T07:45:27.892Z,88.10
2022-10-17T07:47:57.604Z,87.80
2022-10-17T07:50:27.188Z,87.80
2022-10-17T07:52:55.318Z,87.30
2022-10-17T07:55:23.464Z,87.20
2022-10-17T07:57:51.576Z,86.20
2022-10-17T08:00:19.894Z,86.20
2022-10-17T08:02:48.614Z,85.80
2022-10-17T08:05:16.740Z,84.20
2022-10-17T08:07:46.486Z,84.40
2022-10-17T08:10:16.234Z,84.00
2022-10-17T08:12:45.022Z,83.70
2022-10-17T08:15:13.172Z,82.80
2022-10-17T08:17:41.544Z,82.80
2022-10-17T08:20:11.242Z,82.80
2022-10-17T08:22:39.424Z,83.90
2022-10-17T08:25:10.702Z,83.60
2022-10-17T08:27:38.782Z,84.20
2022-10-17T08:30:08.038Z,83.90
2022-10-17T08:32:36.212Z,82.70
2022-10-17T08:35:04.443Z,82.10
2022-10-17T08:37:32.977Z,81.90
2022-10-17T08:40:01.470Z,81.10
2022-10-17T08:42:44.367Z,81.00
2022-10-17T08:45:19.637Z,80.10
2022-10-17T08:47:51.467Z,78.50
2022-10-17T08:50:28.677Z,77.70
2022-10-17T08:53:03.778Z,77.60
2022-10-17T08:55:41.269Z,78.00
2022-10-17T08:58:18.259Z,75.90
2022-10-17T09:00:53.271Z,75.40
2022-10-17T09:03:32.508Z,76.20
2022-10-17T09:06:16.549Z,73.60
2022-10-17T09:08:56.022Z,73.20
2022-10-17T09:11:39.590Z,71.60
2022-10-17T09:14:28.148Z,73.00
2022-10-17T09:17:08.557Z,72.30
2022-10-17T09:19:40.187Z,71.90
2022-10-17T09:22:13.849Z,71.50
2022-10-17T09:24:45.247Z,72.60
2022-10-17T09:27:23.311Z,73.20
2022-10-17T09:30:02.532Z,74.40
2022-10-17T09:32:30.964Z,73.10
2022-10-17T09:34:59.471Z,72.50
2022-10-17T09:37:35.139Z,72.10
2022-10-17T09:40:03.715Z,71.40
2022-10-17T09:42:32.566Z,71.60
2022-10-17T09:45:19.559Z,72.30
2022-10-17T09:47:52.176Z,70.80
2022-10-17T09:53:34.657Z,72.70
2022-10-17T09:53:38.887Z,72.10
2022-10-17T09:56:18.247Z,73.90
2022-10-17T10:05:11.332Z,69.10
2022-10-17T10:07:42.374Z,69.40
2022-10-17T10:10:27.894Z,71.00
2022-10-17T10:13:08.001Z,68.80
2022-10-17T10:15:57.649Z,69.50
2022-10-17T10:18:33.505Z,69.20
2022-10-17T10:21:16.001Z,68.10
2022-10-17T10:23:45.791Z,66.90
2022-10-17T10:26:23.694Z,68.00
2022-10-17T10:29:00.058Z,65.60
2022-10-17T10:31:32.118Z,66.20
2022-10-17T10:34:12.358Z,64.30
2022-10-17T10:37:03.072Z,63.70
2022-10-17T10:39:43.331Z,62.40
2022-10-17T10:42:22.409Z,63.50
2022-10-17T10:44:51.762Z,62.40
2022-10-17T10:47:23.719Z,62.00
2022-10-17T10:50:07.591Z,62.60
2022-10-17T10:52:43.482Z,62.40
2022-10-17T10:55:27.293Z,61.90
2022-10-17T10:57:59.804Z,63.80
2022-10-17T11:00:30.686Z,61.40
2022-10-17T11:03:10.564Z,60.70
2022-10-17T11:05:46.911Z,59.00
2022-10-17T11:08:22.495Z,60.00
2022-10-17T11:11:04.783Z,57.40
2022-10-17T11:13:38.895Z,59.10
2022-10-17T11:16:19.632Z,57.30
2022-10-17T11:18:52.223Z,57.00
2022-10-17T11:21:29.720Z,54.70
2022-10-17T11:24:06.962Z,58.80
2022-10-17T11:26:43.032Z,57.50
2022-10-17T11:29:13.809Z,60.10
2022-10-17T11:31:47.294Z,57.40
2022-10-17T11:34:21.953Z,54.20
2022-10-17T11:36:57.771Z,55.60
2022-10-17T11:39:36.113Z,57.40
2022-10-17T11:42:10.665Z,53.60
2022-10-17T11:44:40.451Z,54.90
2022-10-17T11:47:18.950Z,58.00
2022-10-17T11:49:51.640Z,55.00
2022-10-17T11:52:55.400Z,56.20
2022-10-17T11:55:26.458Z,56.10
2022-10-17T11:58:05.508Z,54.30
2022-10-17T12:00:47.548Z,53.30
2022-10-17T12:03:30.379Z,52.10
2022-10-17T12:06:05.153Z,55.40
2022-10-17T12:08:41.363Z,55.00
2022-10-17T12:11:16.112Z,49.60
2022-10-17T12:13:55.142Z,50.30
2022-10-17T12:16:46.966Z,49.30
2022-10-17T12:19:33.917Z,50.00
2022-10-17T12:22:06.699Z,49.90
2022-10-17T12:24:40.655Z,46.00
2022-10-17T12:27:39.166Z,47.50
2022-10-17T12:30:18.209Z,46.10
2022-10-17T12:33:06.055Z,48.40
2022-10-17T12:35:37.237Z,43.10
2022-10-17T12:38:24.865Z,46.80
2022-10-17T12:41:02.923Z,45.60
2022-10-17T12:43:58.539Z,42.90
2022-10-17T12:46:49.308Z,43.60
2022-10-17T12:49:39.737Z,39.70
2022-10-17T12:52:21.908Z,40.00
2022-10-17T12:55:11.704Z,43.80
2022-10-17T12:57:51.462Z,45.50
2022-10-17T13:00:26.495Z,44.00
2022-10-17T13:02:56.721Z,42.30
2022-10-17T13:05:29.785Z,41.00
2022-10-17T13:08:00.958Z,40.00
2022-10-17T13:10:31.824Z,39.20
2022-10-17T13:13:08.126Z,40.40
2022-10-17T13:15:38.296Z,35.20
2022-10-17T13:18:06.707Z,40.80
2022-10-17T13:20:35.100Z,39.40
2022-10-17T13:23:04.087Z,38.10
2022-10-17T13:25:34.638Z,38.90
2022-10-17T13:28:13.691Z,41.80
2022-10-17T13:30:49.661Z,38.80
2022-10-17T13:33:29.991Z,38.60
2022-10-17T13:36:00.763Z,36.80
2022-10-17T13:38:35.721Z,36.60
2022-10-17T13:41:34.737Z,35.10
2022-10-17T13:44:08.809Z,34.90
2022-10-17T13:46:39.572Z,34.30
2022-10-17T13:49:23.326Z,33.70
2022-10-17T13:51:56.359Z,32.60
2022-10-17T13:54:34.752Z,34.00
2022-10-17T13:57:04.641Z,35.50
2022-10-17T13:59:39.932Z,33.90
2022-10-17T14:02:14.815Z,32.70
2022-10-17T14:05:15.167Z,33.60
2022-10-17T14:08:05.450Z,36.80
2022-10-17T14:10:30.979Z,35.30
2022-10-17T14:13:00.397Z,38.10
2022-10-17T14:15:33.256Z,36.10
2022-10-17T14:18:07.324Z,35.90
2022-10-17T14:23:35.180Z,35.30
2022-10-17T14:26:22.519Z,36.10
2022-10-17T14:29:06.005Z,36.30
2022-10-17T14:31:38.458Z,35.90
2022-10-17T15:36:24.437Z,51.40
2022-10-17T15:38:55.628Z,53.00
2022-10-17T15:41:25.587Z,53.20
2022-10-17T15:43:54.637Z,52.90
2022-10-17T15:46:26.253Z,54.00
2022-10-17T15:48:55.252Z,53.30
2022-10-17T15:51:25.177Z,52.70
2022-10-17T15:53:55.476Z,52.80
2022-10-17T15:56:26.517Z,52.70
2022-10-17T15:58:55.049Z,52.90
2022-10-17T16:01:26.357Z,52.70
2022-10-17T16:04:07.484Z,52.00
2022-10-17T16:06:39.931Z,52.30
2022-10-17T16:09:08.673Z,52.00
2022-10-17T16:11:59.437Z,52.20
2022-10-17T16:14:31.740Z,52.50
2022-10-17T16:17:00.290Z,52.70
2022-10-17T16:19:30.087Z,52.60
2022-10-17T16:22:04.281Z,53.10
2022-10-17T16:24:35.809Z,53.30
2022-10-17T16:27:04.185Z,53.60
2022-10-17T16:29:37.668Z,53.90
2022-10-17T16:32:08.466Z,54.00
2022-10-17T16:34:36.845Z,54.20
2022-10-17T16:37:07.486Z,54.50
2022-10-17T16:39:35.796Z,54.80
2022-10-17T16:42:04.238Z,54.90
2022-10-17T16:44:32.565Z,54.70
2022-10-17T16:47:00.867Z,54.20
2022-10-17T16:49:29.373Z,54.20
2022-10-17T16:51:57.861Z,55.40
2022-10-17T16:54:28.358Z,55.30
2022-10-17T16:57:01.974Z,55.70
2022-10-17T16:59:38.903Z,55.90
2022-10-17T17:06:01.015Z,57.10
2022-10-17T17:08:33.532Z,56.10
2022-10-17T17:11:09.607Z,56.30
2022-10-17T17:13:54.243Z,61.30
2022-10-17T17:16:43.500Z,66.60
2022-10-17T17:19:15.291Z,66.80
2022-10-17T17:21:47.931Z,65.80
2022-10-17T17:24:17.616Z,63.60
2022-10-17T17:27:13.581Z,62.00
2022-10-17T17:29:51.157Z,61.90
2022-10-17T17:32:25.076Z,63.70
2022-10-17T17:34:55.502Z,62.50
2022-10-17T17:37:24.200Z,61.60
2022-10-17T17:39:52.763Z,60.80
2022-10-17T17:42:22.699Z,60.30
2022-10-17T17:44:52.284Z,60.10
2022-10-17T17:47:20.949Z,60.50
2022-10-17T17:49:50.402Z,60.20
2022-10-17T17:52:22.064Z,60.50
2022-10-17T17:54:52.401Z,60.80
2022-10-17T17:57:22.958Z,61.10
2022-10-17T17:59:52.471Z,61.30
2022-10-17T18:02:23.409Z,62.30
2022-10-17T18:04:53.006Z,61.60
2022-10-17T18:07:21.948Z,62.30
2022-10-17T18:09:51.316Z,62.50
2022-10-17T18:12:22.653Z,62.00
2022-10-17T18:14:52.588Z,61.90
2022-10-17T18:17:21.025Z,62.10
2022-10-17T18:19:49.580Z,62.20
2022-10-17T18:22:19.586Z,61.80
2022-10-17T18:24:47.957Z,62.10
2022-10-17T18:27:16.449Z,63.80
2022-10-17T18:29:46.488Z,64.40
2022-10-17T18:32:16.842Z,63.50
2022-10-17T18:34:45.311Z,63.30
2022-10-17T18:37:13.664Z,63.70
2022-10-17T18:39:41.892Z,63.60
2022-10-17T18:42:11.356Z,64.70
2022-10-17T18:44:39.596Z,64.60
2022-10-17T18:47:07.819Z,65.40
2022-10-17T18:49:37.754Z,65.70
2022-10-17T18:52:06.395Z,65.80
2022-10-17T18:54:34.886Z,66.00
2022-10-17T18:57:03.180Z,66.40
2022-10-17T18:59:31.460Z,66.00
2022-10-17T19:02:00.313Z,65.60
2022-10-17T19:04:28.786Z,65.00
2022-10-17T19:06:58.615Z,65.10
2022-10-17T19:09:26.787Z,65.00
2022-10-17T19:11:55.327Z,65.10
2022-10-17T19:14:23.499Z,65.10
2022-10-17T19:16:52.022Z,65.30
2022-10-17T19:19:24.619Z,65.60
2022-10-17T19:21:53.929Z,66.00
2022-10-17T19:24:25.815Z,65.80
2022-10-17T19:26:55.572Z,65.90
2022-10-17T19:29:28.264Z,66.00
2022-10-17T19:34:24.795Z,66.70
2022-10-17T19:36:53.072Z,67.70
2022-10-17T19:39:25.233Z,67.10
2022-10-17T19:41:53.834Z,67.30
2022-10-17T19:44:22.178Z,68.10
2022-10-17T19:46:50.375Z,67.60
2022-10-17T19:49:25.219Z,67.80
2022-10-17T19:51:55.598Z,67.80
2022-10-17T19:54:28.259Z,67.40
2022-10-17T19:57:00.770Z,67.50
2022-10-17T19:59:29.575Z,67.60
2022-10-17T20:01:58.135Z,67.50
2022-10-17T20:04:26.506Z,67.70
2022-10-17T20:06:55.621Z,67.40
2022-10-17T20:09:25.566Z,68.00
2022-10-17T20:11:53.941Z,68.50
2022-10-17T20:14:22.400Z,70.00
2022-10-17T20:16:54.824Z,69.70
2022-10-17T20:19:23.257Z,69.10
2022-10-17T20:21:54.850Z,69.10
2022-10-17T20:24:24.882Z,68.60
2022-10-17T20:26:53.320Z,68.50
2022-10-17T20:29:24.124Z,67.80
2022-10-17T20:31:52.661Z,67.60
2022-10-17T20:34:21.229Z,67.60
2022-10-17T20:36:49.960Z,67.30
2022-10-17T20:39:20.539Z,67.10
2022-10-17T20:41:50.646Z,66.70
2022-10-17T20:44:18.894Z,66.90
2022-10-17T20:47:01.108Z,66.70
2022-10-17T20:49:30.935Z,66.60
2022-10-17T20:51:59.797Z,65.70
2022-10-17T20:54:29.035Z,66.10
2022-10-17T20:57:02.436Z,65.20
2022-10-17T20:59:34.289Z,65.20
2022-10-17T21:02:02.907Z,65.50
2022-10-17T21:04:47.398Z,65.10
2022-10-17T21:07:16.203Z,64.30
2022-10-17T21:09:46.302Z,64.80
2022-10-17T21:12:25.862Z,64.70
2022-10-17T21:15:00.090Z,64.90
2022-10-17T21:17:28.653Z,64.80
2022-10-17T21:19:57.049Z,64.20
2022-10-17T21:22:25.358Z,64.50
2022-10-17T21:24:53.737Z,63.60
2022-10-17T21:27:23.623Z,62.80
2022-10-17T21:29:52.079Z,62.60
2022-10-17T21:32:33.471Z,61.10
2022-10-17T21:35:09.704Z,60.50
2022-10-17T21:37:38.121Z,58.80
2022-10-17T21:40:10.387Z,58.40
2022-10-17T21:42:40.324Z,58.00
2022-10-17T21:45:25.950Z,58.00
2022-10-17T21:48:12.139Z,57.30
2022-10-17T21:50:42.060Z,57.70
2022-10-17T21:53:16.626Z,56.20
2022-10-17T21:55:48.602Z,55.90
2022-10-17T21:58:18.625Z,55.70
2022-10-17T22:00:46.977Z,55.20
2022-10-17T22:03:16.899Z,54.80
2022-10-17T22:05:46.654Z,55.30
2022-10-17T22:08:14.998Z,55.10
2022-10-17T22:10:43.285Z,55.20
2022-10-17T22:13:11.649Z,55.00
2022-10-17T22:15:41.715Z,54.90
2022-10-17T22:18:10.198Z,54.70
2022-10-17T22:20:38.540Z,54.40
2022-10-17T22:23:06.904Z,54.60
2022-10-17T22:25:35.514Z,54.70
2022-10-17T22:28:12.331Z,54.40
2022-10-17T22:30:42.142Z,54.30
2022-10-17T22:33:10.709Z,54.20
2022-10-17T22:35:39.356Z,54.10
2022-10-17T22:38:15.792Z,54.20
2022-10-17T22:40:46.179Z,53.80
2022-10-17T22:43:17.670Z,54.60
2022-10-17T22:46:15.881Z,54.70
2022-10-17T22:49:01.083Z,56.10
2022-10-17T22:51:53.698Z,61.00
2022-10-17T22:54:41.392Z,64.50
2022-10-17T22:57:44.559Z,65.10
2022-10-17T23:00:11.476Z,66.30
2022-10-17T23:03:02.497Z,70.90
2022-10-17T23:05:49.443Z,68.60
2022-10-17T23:08:19.163Z,71.90
2022-10-17T23:10:50.538Z,75.10
2022-10-17T23:13:19.997Z,75.50
2022-10-17T23:15:51.561Z,76.60
2022-10-17T23:18:22.049Z,77.10
2022-10-17T23:20:58.532Z,76.90
2022-10-17T23:23:28.658Z,74.10
2022-10-17T23:25:57.421Z,75.00
2022-10-17T23:28:27.712Z,72.90
2022-10-17T23:30:58.048Z,75.30
2022-10-17T23:33:35.664Z,74.90
2022-10-17T23:36:05.534Z,76.40
2022-10-17T23:38:34.128Z,75.40
2022-10-17T23:41:02.399Z,75.20
2022-10-17T23:43:32.044Z,77.50
2022-10-17T23:46:04.264Z,77.30
2022-10-17T23:48:38.613Z,78.40
2022-10-17T23:51:10.636Z,81.10
2022-10-17T23:53:46.373Z,82.30
2022-10-17T23:56:14.988Z,80.40
2022-10-17T23:58:43.279Z,78.70
